sensor_id;sensor_type;location;lat;lon;timestamp;pressure;altitude;pressure_sealevel;temperature;humidity
72548;BME280;60570;50.848;6.776;2022-09-28T00:00:48;98523.63;;;13.91;63.06
72548;BME280;60570;50.848;6.776;2022-09-28T00:01:48;98534.84;;;13.84;63.24
72548;BME280;60570;50.848;6.776;2022-09-28T00:02:49;98526.03;;;13.89;63.17
72548;BME280;60570;50.848;6.776;2022-09-28T00:03:52;98522.84;;;13.91;63.08
72548;BME280;60570;50.848;6.776;2022-09-28T00:04:53;98520.84;;;13.95;62.99
72548;BME280;60570;50.848;6.776;2022-09-28T00:05:59;98528.41;;;13.98;62.75
72548;BME280;60570;50.848;6.776;2022-09-28T00:07:00;98517.66;;;13.93;62.72
72548;BME280;60570;50.848;6.776;2022-09-28T00:08:00;98517.66;;;13.93;62.93
72548;BME280;60570;50.848;6.776;2022-09-28T00:09:01;98517.28;;;13.87;63.18
72548;BME280;60570;50.848;6.776;2022-09-28T00:10:01;98528.00;;;13.96;62.83
72548;BME280;60570;50.848;6.776;2022-09-28T00:11:04;98523.63;;;13.95;63.00
72548;BME280;60570;50.848;6.776;2022-09-28T00:12:05;98522.84;;;13.94;62.98
72548;BME280;60570;50.848;6.776;2022-09-28T00:13:05;98524.84;;;13.90;62.73
72548;BME280;60570;50.848;6.776;2022-09-28T00:14:07;98525.66;;;13.91;63.20
72548;BME280;60570;50.848;6.776;2022-09-28T00:15:07;98524.41;;;13.95;62.68
72548;BME280;60570;50.848;6.776;2022-09-28T00:16:13;98525.25;;;13.92;62.96
72548;BME280;60570;50.848;6.776;2022-09-28T00:17:16;98527.63;;;13.94;63.05
72548;BME280;60570;50.848;6.776;2022-09-28T00:18:21;98518.47;;;13.90;63.16
72548;BME280;60570;50.848;6.776;2022-09-28T00:19:21;98522.84;;;13.91;63.02
72548;BME280;60570;50.848;6.776;2022-09-28T00:20:22;98523.25;;;13.89;63.06
72548;BME280;60570;50.848;6.776;2022-09-28T00:21:25;98525.63;;;13.94;63.01
72548;BME280;60570;50.848;6.776;2022-09-28T00:22:27;98518.06;;;13.95;62.86
72548;BME280;60570;50.848;6.776;2022-09-28T00:23:27;98520.09;;;13.87;63.01
72548;BME280;60570;50.848;6.776;2022-09-28T00:24:27;98525.25;;;13.89;62.88
72548;BME280;60570;50.848;6.776;2022-09-28T00:25:29;98525.63;;;13.94;63.00
72548;BME280;60570;50.848;6.776;2022-09-28T00:26:31;98527.25;;;13.88;63.02
72548;BME280;60570;50.848;6.776;2022-09-28T00:27:32;98520.03;;;13.94;62.79
72548;BME280;60570;50.848;6.776;2022-09-28T00:28:33;98518.84;;;13.92;62.81
72548;BME280;60570;50.848;6.776;2022-09-28T00:29:35;98518.03;;;13.91;62.72
72548;BME280;60570;50.848;6.776;2022-09-28T00:30:36;98518.13;;;13.81;63.17
72548;BME280;60570;50.848;6.776;2022-09-28T00:31:36;98515.69;;;13.86;63.02
72548;BME280;60570;50.848;6.776;2022-09-28T00:32:36;98521.66;;;13.92;62.91
72548;BME280;60570;50.848;6.776;2022-09-28T00:33:37;98523.25;;;13.89;62.85
72548;BME280;60570;50.848;6.776;2022-09-28T00:34:41;98517.25;;;13.94;62.62
72548;BME280;60570;50.848;6.776;2022-09-28T00:35:44;98526.03;;;13.89;62.71
72548;BME280;60570;50.848;6.776;2022-09-28T00:36:46;98516.88;;;13.89;63.02
72548;BME280;60570;50.848;6.776;2022-09-28T00:37:47;98524.81;;;13.94;62.88
72548;BME280;60570;50.848;6.776;2022-09-28T00:38:48;98521.66;;;13.88;62.67
72548;BME280;60570;50.848;6.776;2022-09-28T00:39:49;98516.91;;;13.85;63.01
72548;BME280;60570;50.848;6.776;2022-09-28T00:40:49;98517.28;;;13.87;62.67
72548;BME280;60570;50.848;6.776;2022-09-28T00:41:50;98519.31;;;13.83;62.92
72548;BME280;60570;50.848;6.776;2022-09-28T00:42:50;98517.69;;;13.86;62.85
72548;BME280;60570;50.848;6.776;2022-09-28T00:43:51;98511.34;;;13.78;63.04
72548;BME280;60570;50.848;6.776;2022-09-28T00:44:55;98513.72;;;13.87;62.71
72548;BME280;60570;50.848;6.776;2022-09-28T00:46:12;98513.25;;;13.95;62.58
72548;BME280;60570;50.848;6.776;2022-09-28T00:48:26;98506.09;;;13.91;62.55
72548;BME280;60570;50.848;6.776;2022-09-28T00:50:50;98510.09;;;13.86;62.50
72548;BME280;60570;50.848;6.776;2022-09-28T00:51:51;98509.31;;;13.86;62.90
72548;BME280;60570;50.848;6.776;2022-09-28T00:53:00;98510.53;;;13.81;62.55
72548;BME280;60570;50.848;6.776;2022-09-28T00:54:04;98504.97;;;13.74;63.17
72548;BME280;60570;50.848;6.776;2022-09-28T00:55:10;98506.53;;;13.86;62.83
72548;BME280;60570;50.848;6.776;2022-09-28T00:56:16;98503.34;;;13.84;62.72
72548;BME280;60570;50.848;6.776;2022-09-28T00:57:20;98503.78;;;13.79;63.04
72548;BME280;60570;50.848;6.776;2022-09-28T00:58:33;98502.13;;;13.88;62.66
72548;BME280;60570;50.848;6.776;2022-09-28T00:59:35;98507.28;;;13.90;62.39
72548;BME280;60570;50.848;6.776;2022-09-28T01:00:37;98494.97;;;13.84;62.65
72548;BME280;60570;50.848;6.776;2022-09-28T01:01:39;98498.53;;;13.88;62.71
72548;BME280;60570;50.848;6.776;2022-09-28T01:02:41;98499.34;;;13.85;62.93
72548;BME280;60570;50.848;6.776;2022-09-28T01:03:43;98502.94;;;13.89;62.64
72548;BME280;60570;50.848;6.776;2022-09-28T01:04:44;98503.72;;;13.93;62.63
72548;BME280;60570;50.848;6.776;2022-09-28T01:05:45;98502.53;;;13.87;62.22
72548;BME280;60570;50.848;6.776;2022-09-28T01:06:47;98505.75;;;13.85;62.75
72548;BME280;60570;50.848;6.776;2022-09-28T01:07:49;98501.72;;;13.90;62.25
72548;BME280;60570;50.848;6.776;2022-09-28T01:08:52;98497.75;;;13.87;62.58
72548;BME280;60570;50.848;6.776;2022-09-28T01:09:54;98504.09;;;13.91;62.36
72548;BME280;60570;50.848;6.776;2022-09-28T01:10:56;98495.81;;;13.77;62.63
72548;BME280;60570;50.848;6.776;2022-09-28T01:11:57;98491.78;;;13.82;62.58
72548;BME280;60570;50.848;6.776;2022-09-28T01:12:57;98489.00;;;13.78;63.02
72548;BME280;60570;50.848;6.776;2022-09-28T01:13:58;98499.00;;;13.79;62.91
72548;BME280;60570;50.848;6.776;2022-09-28T01:15:00;98489.81;;;13.79;62.80
72548;BME280;60570;50.848;6.776;2022-09-28T01:16:08;98491.00;;;13.78;62.89
72548;BME280;60570;50.848;6.776;2022-09-28T01:17:17;98495.81;;;13.74;62.91
72548;BME280;60570;50.848;6.776;2022-09-28T01:18:46;98490.22;;;13.77;62.76
72548;BME280;60570;50.848;6.776;2022-09-28T01:20:06;98488.97;;;13.89;62.59
72548;BME280;60570;50.848;6.776;2022-09-28T01:21:18;98493.38;;;13.83;62.95
72548;BME280;60570;50.848;6.776;2022-09-28T01:22:43;98491.00;;;13.81;62.60
72548;BME280;60570;50.848;6.776;2022-09-28T01:26:50;98494.16;;;13.87;62.57
72548;BME280;60570;50.848;6.776;2022-09-28T01:27:56;98496.19;;;13.83;62.67
72548;BME280;60570;50.848;6.776;2022-09-28T01:30:14;98495.81;;;13.70;62.95
72548;BME280;60570;50.848;6.776;2022-09-28T01:31:19;98485.41;;;13.78;62.78
72548;BME280;60570;50.848;6.776;2022-09-28T01:32:34;98491.00;;;13.78;62.56
72548;BME280;60570;50.848;6.776;2022-09-28T01:34:53;98491.41;;;13.76;62.86
72548;BME280;60570;50.848;6.776;2022-09-28T01:36:11;98495.81;;;13.77;62.86
72548;BME280;60570;50.848;6.776;2022-09-28T01:37:17;98489.84;;;13.75;62.59
72548;BME280;60570;50.848;6.776;2022-09-28T01:38:30;98494.19;;;13.80;62.53
72548;BME280;60570;50.848;6.776;2022-09-28T01:39:39;98487.00;;;13.82;62.58
72548;BME280;60570;50.848;6.776;2022-09-28T01:40:41;98489.84;;;13.75;62.76
72548;BME280;60570;50.848;6.776;2022-09-28T01:41:44;98495.03;;;13.73;62.96
72548;BME280;60570;50.848;6.776;2022-09-28T01:42:50;98487.06;;;13.75;62.72
72548;BME280;60570;50.848;6.776;2022-09-28T01:43:58;98490.22;;;13.74;62.71
72548;BME280;60570;50.848;6.776;2022-09-28T01:45:09;98477.47;;;13.76;62.83
72548;BME280;60570;50.848;6.776;2022-09-28T01:46:18;98481.47;;;13.75;63.00
72548;BME280;60570;50.848;6.776;2022-09-28T01:47:21;98490.63;;;13.76;62.44
72548;BME280;60570;50.848;6.776;2022-09-28T01:48:32;98485.44;;;13.74;62.70
72548;BME280;60570;50.848;6.776;2022-09-28T01:49:42;98489.00;;;13.82;62.36
72548;BME280;60570;50.848;6.776;2022-09-28T01:50:47;98493.38;;;13.83;62.47
72548;BME280;60570;50.848;6.776;2022-09-28T01:51:53;98487.03;;;13.79;62.53
72548;BME280;60570;50.848;6.776;2022-09-28T01:53:28;98484.66;;;13.77;62.47
72548;BME280;60570;50.848;6.776;2022-09-28T01:54:37;98483.09;;;13.69;62.83
72548;BME280;60570;50.848;6.776;2022-09-28T01:55:47;98490.66;;;13.69;62.81
72548;BME280;60570;50.848;6.776;2022-09-28T01:56:53;98485.44;;;13.74;62.68
72548;BME280;60570;50.848;6.776;2022-09-28T01:58:02;98486.63;;;13.77;62.65
72548;BME280;60570;50.848;6.776;2022-09-28T01:59:09;98488.22;;;13.74;62.80
72548;BME280;60570;50.848;6.776;2022-09-28T02:00:13;98484.25;;;13.75;62.32
72548;BME280;60570;50.848;6.776;2022-09-28T02:01:23;98483.03;;;13.80;62.27
72548;BME280;60570;50.848;6.776;2022-09-28T02:02:30;98482.63;;;13.81;62.21
72548;BME280;60570;50.848;6.776;2022-09-28T02:03:40;98476.25;;;13.81;62.14
72548;BME280;60570;50.848;6.776;2022-09-28T02:05:07;98474.66;;;13.83;62.35
72548;BME280;60570;50.848;6.776;2022-09-28T02:06:17;98482.25;;;13.76;62.46
72548;BME280;60570;50.848;6.776;2022-09-28T02:07:36;98479.84;;;13.78;62.62
72548;BME280;60570;50.848;6.776;2022-09-28T02:08:42;98478.25;;;13.80;62.61
72548;BME280;60570;50.848;6.776;2022-09-28T02:09:48;98479.81;;;13.85;62.30
72548;BME280;60570;50.848;6.776;2022-09-28T02:10:56;98479.47;;;13.72;62.89
72548;BME280;60570;50.848;6.776;2022-09-28T02:12:04;98476.66;;;13.79;62.43
72548;BME280;60570;50.848;6.776;2022-09-28T02:13:18;98477.81;;;13.82;62.38
72548;BME280;60570;50.848;6.776;2022-09-28T02:14:21;98477.44;;;13.80;62.68
72548;BME280;60570;50.848;6.776;2022-09-28T02:15:25;98480.66;;;13.75;62.58
72548;BME280;60570;50.848;6.776;2022-09-28T02:16:43;98487.84;;;13.79;62.47
72548;BME280;60570;50.848;6.776;2022-09-28T02:17:44;98479.03;;;13.81;62.40
72548;BME280;60570;50.848;6.776;2022-09-28T02:18:45;98480.22;;;13.80;62.60
72548;BME280;60570;50.848;6.776;2022-09-28T02:19:46;98477.06;;;13.81;62.25
72548;BME280;60570;50.848;6.776;2022-09-28T02:21:12;98472.25;;;13.85;62.13
72548;BME280;60570;50.848;6.776;2022-09-28T02:22:29;98487.00;;;13.82;62.18
72548;BME280;60570;50.848;6.776;2022-09-28T02:23:34;98476.63;;;13.86;62.34
72548;BME280;60570;50.848;6.776;2022-09-28T02:24:40;98480.22;;;13.80;62.15
72548;BME280;60570;50.848;6.776;2022-09-28T02:25:46;98480.63;;;13.85;62.45
72548;BME280;60570;50.848;6.776;2022-09-28T02:26:50;98477.06;;;13.81;62.49
72548;BME280;60570;50.848;6.776;2022-09-28T02:28:03;98472.63;;;13.84;61.91
72548;BME280;60570;50.848;6.776;2022-09-28T02:29:04;98488.19;;;13.85;62.00
72548;BME280;60570;50.848;6.776;2022-09-28T02:30:05;98480.66;;;13.75;62.44
72548;BME280;60570;50.848;6.776;2022-09-28T02:31:08;98485.91;;;13.66;62.88
72548;BME280;60570;50.848;6.776;2022-09-28T02:32:09;98483.88;;;13.73;62.54
72548;BME280;60570;50.848;6.776;2022-09-28T02:33:23;98482.28;;;13.69;62.95
72548;BME280;60570;50.848;6.776;2022-09-28T02:34:25;98488.31;;;13.64;63.15
72548;BME280;60570;50.848;6.776;2022-09-28T02:35:26;98485.47;;;13.71;62.89
72548;BME280;60570;50.848;6.776;2022-09-28T02:36:27;98488.66;;;13.69;62.84
72548;BME280;60570;50.848;6.776;2022-09-28T02:37:30;98480.25;;;13.76;62.43
72548;BME280;60570;50.848;6.776;2022-09-28T02:38:31;98482.25;;;13.76;62.53
72548;BME280;60570;50.848;6.776;2022-09-28T02:39:31;98490.63;;;13.72;62.72
72548;BME280;60570;50.848;6.776;2022-09-28T02:40:33;98488.66;;;13.73;62.66
72548;BME280;60570;50.848;6.776;2022-09-28T02:43:27;98487.84;;;13.79;62.10
72548;BME280;60570;50.848;6.776;2022-09-28T02:45:43;98489.38;;;13.84;62.20
72548;BME280;60570;50.848;6.776;2022-09-28T02:46:57;98483.84;;;13.77;62.60
72548;BME280;60570;50.848;6.776;2022-09-28T02:49:38;98488.22;;;13.78;62.45
72548;BME280;60570;50.848;6.776;2022-09-28T02:57:20;98491.81;;;13.78;62.31
72548;BME280;60570;50.848;6.776;2022-09-28T03:01:52;98494.25;;;13.69;62.33
72548;BME280;60570;50.848;6.776;2022-09-28T03:03:37;98495.81;;;13.77;62.30
72548;BME280;60570;50.848;6.776;2022-09-28T03:05:03;98499.38;;;13.78;62.18
72548;BME280;60570;50.848;6.776;2022-09-28T03:07:35;98495.00;;;13.77;62.43
72548;BME280;60570;50.848;6.776;2022-09-28T03:08:43;98498.19;;;13.79;62.21
72548;BME280;60570;50.848;6.776;2022-09-28T03:09:53;98489.81;;;13.79;62.22
72548;BME280;60570;50.848;6.776;2022-09-28T03:11:01;98493.03;;;13.77;62.28
72548;BME280;60570;50.848;6.776;2022-09-28T03:12:07;98489.00;;;13.78;62.31
72548;BME280;60570;50.848;6.776;2022-09-28T03:13:11;98487.06;;;13.72;62.26
72548;BME280;60570;50.848;6.776;2022-09-28T03:14:13;98483.47;;;13.71;62.30
72548;BME280;60570;50.848;6.776;2022-09-28T03:15:24;98490.25;;;13.67;62.29
72548;BME280;60570;50.848;6.776;2022-09-28T03:16:25;98497.44;;;13.68;62.45
72548;BME280;60570;50.848;6.776;2022-09-28T03:17:27;98494.63;;;13.71;62.47
72548;BME280;60570;50.848;6.776;2022-09-28T03:18:27;98495.00;;;13.77;62.24
72548;BME280;60570;50.848;6.776;2022-09-28T03:19:31;98495.81;;;13.77;62.09
72548;BME280;60570;50.848;6.776;2022-09-28T03:20:32;98497.38;;;13.78;62.22
72548;BME280;60570;50.848;6.776;2022-09-28T03:21:33;98491.81;;;13.78;62.37
72548;BME280;60570;50.848;6.776;2022-09-28T03:22:33;98495.00;;;13.80;62.13
72548;BME280;60570;50.848;6.776;2022-09-28T03:23:34;98492.22;;;13.77;62.01
72548;BME280;60570;50.848;6.776;2022-09-28T03:24:34;98493.78;;;13.78;62.39
72548;BME280;60570;50.848;6.776;2022-09-28T03:25:34;98500.19;;;13.75;62.26
72548;BME280;60570;50.848;6.776;2022-09-28T03:26:37;98494.22;;;13.73;62.21
72548;BME280;60570;50.848;6.776;2022-09-28T03:27:38;98495.78;;;13.81;62.17
72548;BME280;60570;50.848;6.776;2022-09-28T03:28:39;98490.22;;;13.74;62.50
72548;BME280;60570;50.848;6.776;2022-09-28T03:29:39;98495.03;;;13.73;62.33
72548;BME280;60570;50.848;6.776;2022-09-28T03:30:40;98491.81;;;13.78;62.42
72548;BME280;60570;50.848;6.776;2022-09-28T03:31:42;98497.03;;;13.73;62.55
72548;BME280;60570;50.848;6.776;2022-09-28T03:32:43;98497.03;;;13.73;62.38
72548;BME280;60570;50.848;6.776;2022-09-28T03:33:43;98490.63;;;13.72;62.37
72548;BME280;60570;50.848;6.776;2022-09-28T03:34:44;98494.22;;;13.73;61.98
72548;BME280;60570;50.848;6.776;2022-09-28T03:35:50;98494.25;;;13.69;62.57
72548;BME280;60570;50.848;6.776;2022-09-28T03:36:51;98497.06;;;13.62;62.58
72548;BME280;60570;50.848;6.776;2022-09-28T03:37:55;98493.03;;;13.70;62.37
72548;BME280;60570;50.848;6.776;2022-09-28T03:38:55;98501.41;;;13.70;62.54
72548;BME280;60570;50.848;6.776;2022-09-28T03:39:56;98501.00;;;13.75;62.42
72548;BME280;60570;50.848;6.776;2022-09-28T03:40:58;98501.44;;;13.67;62.68
72548;BME280;60570;50.848;6.776;2022-09-28T03:41:59;98494.28;;;13.66;62.30
72548;BME280;60570;50.848;6.776;2022-09-28T03:43:00;98491.06;;;13.67;62.29
72548;BME280;60570;50.848;6.776;2022-09-28T03:44:00;98493.84;;;13.67;62.48
72548;BME280;60570;50.848;6.776;2022-09-28T03:45:01;98491.88;;;13.64;62.41
72548;BME280;60570;50.848;6.776;2022-09-28T03:46:01;98489.84;;;13.68;62.52
72548;BME280;60570;50.848;6.776;2022-09-28T03:47:02;98500.22;;;13.64;62.54
72548;BME280;60570;50.848;6.776;2022-09-28T03:48:02;98491.88;;;13.68;62.56
72548;BME280;60570;50.848;6.776;2022-09-28T03:49:03;98490.66;;;13.69;62.23
72548;BME280;60570;50.848;6.776;2022-09-28T03:50:06;98503.81;;;13.68;62.23
72548;BME280;60570;50.848;6.776;2022-09-28T03:51:08;98501.44;;;13.67;62.53
72548;BME280;60570;50.848;6.776;2022-09-28T03:52:10;98497.84;;;13.63;62.63
72548;BME280;60570;50.848;6.776;2022-09-28T03:53:10;98492.25;;;13.70;62.35
72548;BME280;60570;50.848;6.776;2022-09-28T03:54:10;98489.47;;;13.70;62.39
72548;BME280;60570;50.848;6.776;2022-09-28T03:55:12;98502.22;;;13.67;62.49
72548;BME280;60570;50.848;6.776;2022-09-28T03:56:14;98500.69;;;13.56;62.63
72548;BME280;60570;50.848;6.776;2022-09-28T03:57:14;98502.25;;;13.64;62.46
72548;BME280;60570;50.848;6.776;2022-09-28T03:58:19;98506.22;;;13.63;62.46
72548;BME280;60570;50.848;6.776;2022-09-28T03:59:20;98495.84;;;13.67;62.53
72548;BME280;60570;50.848;6.776;2022-09-28T04:00:22;98501.03;;;13.65;62.60
72548;BME280;60570;50.848;6.776;2022-09-28T04:01:23;98496.63;;;13.71;62.27
72548;BME280;60570;50.848;6.776;2022-09-28T04:02:24;98492.66;;;13.72;62.08
72548;BME280;60570;50.848;6.776;2022-09-28T04:03:26;98492.25;;;13.70;62.95
72548;BME280;60570;50.848;6.776;2022-09-28T04:04:27;98495.88;;;13.63;62.50
72548;BME280;60570;50.848;6.776;2022-09-28T04:05:27;98500.28;;;13.57;62.46
72548;BME280;60570;50.848;6.776;2022-09-28T04:06:28;98496.66;;;13.64;62.43
72548;BME280;60570;50.848;6.776;2022-09-28T04:07:28;98497.06;;;13.62;62.25
72548;BME280;60570;50.848;6.776;2022-09-28T04:08:29;98495.44;;;13.68;62.27
72548;BME280;60570;50.848;6.776;2022-09-28T04:09:29;98495.06;;;13.70;61.91
72548;BME280;60570;50.848;6.776;2022-09-28T04:10:30;98494.22;;;13.73;62.24
72548;BME280;60570;50.848;6.776;2022-09-28T04:11:30;98491.88;;;13.68;62.23
72548;BME280;60570;50.848;6.776;2022-09-28T04:12:31;98493.03;;;13.70;62.29
72548;BME280;60570;50.848;6.776;2022-09-28T04:13:31;98492.25;;;13.70;62.19
72548;BME280;60570;50.848;6.776;2022-09-28T04:14:32;98489.06;;;13.64;62.56
72548;BME280;60570;50.848;6.776;2022-09-28T04:15:36;98497.44;;;13.71;62.10
72548;BME280;60570;50.848;6.776;2022-09-28T04:16:37;98498.25;;;13.61;62.56
72548;BME280;60570;50.848;6.776;2022-09-28T04:17:38;98499.84;;;13.69;62.15
72548;BME280;60570;50.848;6.776;2022-09-28T04:18:38;98497.03;;;13.69;62.24
72548;BME280;60570;50.848;6.776;2022-09-28T04:19:39;98491.47;;;13.66;62.15
72548;BME280;60570;50.848;6.776;2022-09-28T04:20:40;98499.84;;;13.69;62.37
72548;BME280;60570;50.848;6.776;2022-09-28T04:21:44;98499.50;;;13.53;62.85
72548;BME280;60570;50.848;6.776;2022-09-28T04:22:45;98499.47;;;13.64;62.03
72548;BME280;60570;50.848;6.776;2022-09-28T04:23:46;98502.25;;;13.64;62.53
72548;BME280;60570;50.848;6.776;2022-09-28T04:24:47;98504.63;;;13.65;62.04
72548;BME280;60570;50.848;6.776;2022-09-28T04:25:51;98507.00;;;13.67;62.38
72548;BME280;60570;50.848;6.776;2022-09-28T04:26:51;98503.00;;;13.71;62.14
72548;BME280;60570;50.848;6.776;2022-09-28T04:28:11;98508.59;;;13.64;62.36
72548;BME280;60570;50.848;6.776;2022-09-28T04:29:31;98505.81;;;13.68;62.38
72548;BME280;60570;50.848;6.776;2022-09-28T04:30:31;98506.63;;;13.65;62.23
72548;BME280;60570;50.848;6.776;2022-09-28T04:31:44;98505.41;;;13.62;62.42
72548;BME280;60570;50.848;6.776;2022-09-28T04:32:45;98512.59;;;13.63;62.34
72548;BME280;60570;50.848;6.776;2022-09-28T04:33:46;98509.44;;;13.61;62.25
72548;BME280;60570;50.848;6.776;2022-09-28T04:34:47;98502.25;;;13.64;62.23
72548;BME280;60570;50.848;6.776;2022-09-28T04:35:47;98509.41;;;13.65;62.12
72548;BME280;60570;50.848;6.776;2022-09-28T04:36:48;98513.03;;;13.62;62.30
72548;BME280;60570;50.848;6.776;2022-09-28T04:37:49;98511.41;;;13.68;62.18
72548;BME280;60570;50.848;6.776;2022-09-28T04:38:52;98513.38;;;13.71;62.13
72548;BME280;60570;50.848;6.776;2022-09-28T04:39:52;98517.38;;;13.66;62.02
72548;BME280;60570;50.848;6.776;2022-09-28T04:40:53;98512.59;;;13.67;61.99
72548;BME280;60570;50.848;6.776;2022-09-28T04:41:53;98508.63;;;13.68;61.82
72548;BME280;60570;50.848;6.776;2022-09-28T04:42:54;98510.59;;;13.71;61.87
72548;BME280;60570;50.848;6.776;2022-09-28T04:43:55;98514.19;;;13.64;62.32
72548;BME280;60570;50.848;6.776;2022-09-28T04:44:56;98513.03;;;13.51;62.64
72548;BME280;60570;50.848;6.776;2022-09-28T04:45:59;98512.63;;;13.52;62.57
72548;BME280;60570;50.848;6.776;2022-09-28T04:46:59;98513.03;;;13.55;62.39
72548;BME280;60570;50.848;6.776;2022-09-28T04:48:00;98511.84;;;13.56;62.56
72548;BME280;60570;50.848;6.776;2022-09-28T04:49:01;98519.81;;;13.57;62.22
72548;BME280;60570;50.848;6.776;2022-09-28T04:50:02;98520.19;;;13.63;62.54
72548;BME280;60570;50.848;6.776;2022-09-28T04:51:02;98519.75;;;13.64;61.80
72548;BME280;60570;50.848;6.776;2022-09-28T04:52:03;98516.59;;;13.59;62.38
72548;BME280;60570;50.848;6.776;2022-09-28T04:53:04;98515.41;;;13.60;62.04
72548;BME280;60570;50.848;6.776;2022-09-28T04:54:05;98516.97;;;13.68;62.02
72548;BME280;60570;50.848;6.776;2022-09-28T04:55:05;98519.00;;;13.64;62.37
72548;BME280;60570;50.848;6.776;2022-09-28T04:56:13;98525.34;;;13.68;62.10
72548;BME280;60570;50.848;6.776;2022-09-28T04:57:14;98516.19;;;13.64;62.17
72548;BME280;60570;50.848;6.776;2022-09-28T04:58:15;98527.75;;;13.62;62.23
72548;BME280;60570;50.848;6.776;2022-09-28T04:59:15;98515.84;;;13.51;62.53
72548;BME280;60570;50.848;6.776;2022-09-28T05:00:20;98522.59;;;13.57;62.06
72548;BME280;60570;50.848;6.776;2022-09-28T05:01:24;98524.22;;;13.47;62.65
72548;BME280;60570;50.848;6.776;2022-09-28T05:02:24;98518.59;;;13.55;62.21
72548;BME280;60570;50.848;6.776;2022-09-28T05:03:28;98519.78;;;13.61;62.34
72548;BME280;60570;50.848;6.776;2022-09-28T05:04:29;98523.38;;;13.61;62.46
72548;BME280;60570;50.848;6.776;2022-09-28T05:05:30;98517.84;;;13.54;62.58
72548;BME280;60570;50.848;6.776;2022-09-28T05:06:31;98523.03;;;13.45;62.35
72548;BME280;60570;50.848;6.776;2022-09-28T05:07:31;98525.03;;;13.48;62.57
72548;BME280;60570;50.848;6.776;2022-09-28T05:08:33;98521.00;;;13.52;62.14
72548;BME280;60570;50.848;6.776;2022-09-28T05:09:34;98520.22;;;13.48;62.76
72548;BME280;60570;50.848;6.776;2022-09-28T05:10:34;98522.59;;;13.57;62.46
72548;BME280;60570;50.848;6.776;2022-09-28T05:11:36;98517.78;;;13.61;62.13
72548;BME280;60570;50.848;6.776;2022-09-28T05:12:36;98520.59;;;13.58;61.94
72548;BME280;60570;50.848;6.776;2022-09-28T05:13:43;98524.19;;;13.62;62.10
72548;BME280;60570;50.848;6.776;2022-09-28T05:14:44;98523.00;;;13.56;62.49
72548;BME280;60570;50.848;6.776;2022-09-28T05:15:44;98520.22;;;13.48;62.43
72548;BME280;60570;50.848;6.776;2022-09-28T05:16:45;98529.00;;;13.54;62.30
72548;BME280;60570;50.848;6.776;2022-09-28T05:17:46;98527.38;;;13.57;62.32
72548;BME280;60570;50.848;6.776;2022-09-28T05:18:46;98530.97;;;13.57;61.98
72548;BME280;60570;50.848;6.776;2022-09-28T05:19:46;98530.94;;;13.61;62.02
72548;BME280;60570;50.848;6.776;2022-09-28T05:20:47;98527.00;;;13.58;62.21
72548;BME280;60570;50.848;6.776;2022-09-28T05:21:47;98519.81;;;13.57;62.41
72548;BME280;60570;50.848;6.776;2022-09-28T05:22:48;98530.94;;;13.61;62.04
72548;BME280;60570;50.848;6.776;2022-09-28T05:23:49;98525.41;;;13.50;62.39
72548;BME280;60570;50.848;6.776;2022-09-28T05:24:49;98527.41;;;13.49;62.65
72548;BME280;60570;50.848;6.776;2022-09-28T05:25:50;98530.59;;;13.52;62.28
72548;BME280;60570;50.848;6.776;2022-09-28T05:26:51;98529.38;;;13.52;62.47
72548;BME280;60570;50.848;6.776;2022-09-28T05:27:55;98530.97;;;13.46;62.35
72548;BME280;60570;50.848;6.776;2022-09-28T05:28:56;98531.78;;;13.50;62.30
72548;BME280;60570;50.848;6.776;2022-09-28T05:29:56;98524.63;;;13.46;62.46
72548;BME280;60570;50.848;6.776;2022-09-28T05:31:01;98523.03;;;13.41;62.78
72548;BME280;60570;50.848;6.776;2022-09-28T05:32:03;98518.25;;;13.42;62.72
72548;BME280;60570;50.848;6.776;2022-09-28T05:33:04;98527.00;;;13.47;62.55
72548;BME280;60570;50.848;6.776;2022-09-28T05:34:05;98523.03;;;13.45;62.67
72548;BME280;60570;50.848;6.776;2022-09-28T05:35:06;98531.78;;;13.47;62.54
72548;BME280;60570;50.848;6.776;2022-09-28T05:36:08;98522.63;;;13.46;62.32
72548;BME280;60570;50.848;6.776;2022-09-28T05:37:12;98529.38;;;13.49;62.40
72548;BME280;60570;50.848;6.776;2022-09-28T05:38:13;98527.38;;;13.53;62.10
72548;BME280;60570;50.848;6.776;2022-09-28T05:39:14;98521.81;;;13.53;62.16
72548;BME280;60570;50.848;6.776;2022-09-28T05:40:18;98521.84;;;13.42;62.38
72548;BME280;60570;50.848;6.776;2022-09-28T05:41:22;98531.00;;;13.50;62.37
72548;BME280;60570;50.848;6.776;2022-09-28T05:42:22;98524.19;;;13.51;62.25
72548;BME280;60570;50.848;6.776;2022-09-28T05:43:34;98526.63;;;13.45;62.69
72548;BME280;60570;50.848;6.776;2022-09-28T05:44:35;98527.78;;;13.52;62.33
72548;BME280;60570;50.848;6.776;2022-09-28T05:45:37;98525.41;;;13.50;62.33
72548;BME280;60570;50.848;6.776;2022-09-28T05:46:38;98528.19;;;13.54;62.31
72548;BME280;60570;50.848;6.776;2022-09-28T05:47:40;98519.81;;;13.54;62.26
72548;BME280;60570;50.848;6.776;2022-09-28T05:48:41;98524.56;;;13.60;62.41
72548;BME280;60570;50.848;6.776;2022-09-28T05:49:41;98523.34;;;13.65;61.80
72548;BME280;60570;50.848;6.776;2022-09-28T05:50:41;98515.38;;;13.67;61.54
72548;BME280;60570;50.848;6.776;2022-09-28T05:51:42;98524.56;;;13.64;61.97
72548;BME280;60570;50.848;6.776;2022-09-28T05:52:43;98524.19;;;13.51;62.26
72548;BME280;60570;50.848;6.776;2022-09-28T05:53:45;98533.78;;;13.54;61.95
72548;BME280;60570;50.848;6.776;2022-09-28T05:54:46;98528.16;;;13.61;61.81
72548;BME280;60570;50.848;6.776;2022-09-28T05:55:47;98530.16;;;13.57;62.11
72548;BME280;60570;50.848;6.776;2022-09-28T05:56:47;98530.13;;;13.60;62.14
72548;BME280;60570;50.848;6.776;2022-09-28T05:57:48;98530.94;;;13.64;61.89
72548;BME280;60570;50.848;6.776;2022-09-28T05:58:48;98536.53;;;13.61;61.94
72548;BME280;60570;50.848;6.776;2022-09-28T05:59:49;98535.34;;;13.62;61.80
72548;BME280;60570;50.848;6.776;2022-09-28T06:00:54;98533.72;;;13.64;61.88
72548;BME280;60570;50.848;6.776;2022-09-28T06:01:55;98529.38;;;13.56;62.03